Station: Gove Airport

  Atmospheric Gas Attenuation - ITU Rec 676-11   --------------- db/100km ---------------
Date Time Temp RH % AH g/m3 Dew Point Wind Direction Speed kph Gust kph Barometer mB Rainfall Since 9am 24GHz 47GHz 76GHz 122GHz 134GHz 241GHz
07 08:10 25.3 85 19.9 22.6 11 11 1012.8 0 42.8 41.6 81.1 214.7 237.8 826.1
07 08:00 25 87 20.03 22.7 9 11 1012.4 0 43.2 42.0 82.1 217.2 240.8 836.3
07 07:50 24.8 90 20.49 23 9 9 1012.6 0 44.2 43.0 84.6 223.8 248.8 864.2
07 07:40 24.3 93 20.58 23.1 0 0 1012.5 0 44.4 43.4 85.6 226.5 251.9 875.0
07 07:30 23.7 95 20.32 22.9 0 0 1012.1 0 43.9 43.2 84.9 224.8 249.7 867.1
07 07:20 23 95 19.52 22.2 0 0 1012.3 0 42.3 42.0 81.8 216.3 239.1 830.2
07 07:10 22.4 94 18.67 21.4 0 0 1012.2 0 40.5 40.6 78.2 206.9 227.4 789.3
07 07:00 22.2 94 18.45 21.2 0 0 1011.9 0 40.1 40.3 77.3 204.6 224.4 779.1
07 06:50 22 93 18.05 20.8 0 0 1012.1 0 39.2 39.6 75.6 200.0 218.7 759.3
07 06:40 22.8 96 19.51 22.1 0 0 1011.8 0 42.3 42.1 81.9 216.7 239.5 831.6
07 06:30 22.8 95 19.3 22 2 6 1011.3 0 41.9 41.6 80.8 213.8 236.0 819.5
07 06:20 22.9 94 19.21 21.9 4 6 1011.6 0 41.6 41.4 80.3 212.4 234.3 813.6
07 06:10 23.3 95 19.86 22.5 6 7 1011.5 0 43.0 42.5 83.1 219.8 243.5 845.4
07 06:00 23.4 96 20.19 22.7 7 9 1011.2 0 43.7 43.1 84.6 223.8 248.4 862.7
07 05:50 23.4 96 20.19 22.7 9 9 1011.5 0 43.7 43.1 84.6 223.9 248.5 862.9
07 05:40 23.2 95 19.75 22.4 9 9 1011.4 0 42.8 42.3 82.6 218.6 242.0 840.3
07 05:30 23.3 95 19.86 22.5 6 7 1011 0 43.0 42.5 83.0 219.7 243.4 845.1
07 05:20 23.4 95 19.98 22.6 7 7 1011.2 0 43.2 42.7 83.5 221.0 245.0 850.9
07 05:10 23.4 96 20.19 22.7 6 7 1011.2 0 43.7 43.1 84.6 223.8 248.4 862.7
07 04:50 23.4 95 19.98 22.6 7 9 1011.1 0 43.2 42.7 83.5 221.0 245.0 850.8
07 04:40 23.5 95 20.09 22.7 9 9 1011 0 43.5 42.8 83.9 222.1 246.4 855.8
07 04:30 23.4 95 19.98 22.6 7 11 1010.6 0 43.2 42.6 83.5 220.9 244.9 850.5
07 04:20 23.5 95 20.09 22.7 7 9 1010.9 0 43.5 42.8 83.9 222.1 246.4 855.8
07 04:10 23.5 95 20.09 22.7 9 9 1011 0 43.5 42.8 83.9 222.1 246.4 855.8
07 04:00 23.3 94 19.65 22.3 7 9 1010.7 0 42.5 42.0 82.0 216.9 239.9 833.2
07 03:50 23.4 94 19.76 22.4 7 9 1011 0 42.8 42.2 82.4 218.1 241.4 838.4
07 03:40 23.4 94 19.76 22.4 6 7 1011.1 0 42.8 42.2 82.4 218.1 241.5 838.5
07 03:30 23.5 94 19.88 22.5 7 9 1010.8 0 43.0 42.4 82.9 219.3 243.0 843.9
07 03:20 23.5 93 19.67 22.3 7 7 1011.1 0 42.6 42.0 81.9 216.6 239.7 832.3
07 03:10 23.5 93 19.67 22.3 7 7 1011.2 0 42.6 42.0 81.9 216.7 239.7 832.4
07 03:00 23.5 93 19.67 22.3 7 9 1010.9 0 42.6 42.0 81.9 216.6 239.6 832.2
07 02:50 23.6 92 19.57 22.2 9 9 1011.3 0 42.3 41.7 81.3 215.1 237.8 825.8
07 02:40 23.6 93 19.78 22.4 7 9 1011.4 0 42.8 42.2 82.3 217.8 241.2 837.5
07 02:30 23.6 92 19.57 22.2 7 9 1011.2 0 42.3 41.7 81.3 215.1 237.8 825.7
07 02:20 23.8 93 20 22.6 7 9 1011.6 0 43.2 42.5 83.2 220.2 244.1 847.7
07 02:10 23.8 92 19.79 22.4 7 9 1011.6 0 42.8 42.1 82.2 217.4 240.7 835.9
07 02:00 23.9 92 19.9 22.5 6 7 1011.4 0 43.0 42.2 82.6 218.5 242.1 840.8
07 01:50 24.1 92 20.13 22.7 7 7 1011.7 0 43.5 42.6 83.5 221.0 245.2 851.6
07 01:40 24.1 92 20.13 22.7 7 7 1011.7 0 43.5 42.6 83.5 221.0 245.2 851.6
07 01:30 24.3 92 20.36 22.9 7 9 1011.5 0 43.9 43.0 84.4 223.4 248.2 862.1
07 01:20 24.1 92 20.13 22.7 9 9 1011.8 0 43.5 42.6 83.5 221.0 245.2 851.7
07 01:10 24 92 20.02 22.6 9 9 1011.9 0 43.3 42.5 83.1 219.9 243.8 846.7
07 01:00 24.1 92 20.13 22.7 7 7 1011.7 0 43.5 42.6 83.5 221.0 245.2 851.6
07 00:50 24.1 92 20.13 22.7 7 7 1012.1 0 43.5 42.6 83.5 221.1 245.3 851.8
07 00:40 24.1 92 20.13 22.7 7 9 1012.2 0 43.5 42.6 83.5 221.1 245.3 851.9
07 00:30 24.1 92 20.13 22.7 7 9 1012 0 43.5 42.6 83.5 221.1 245.2 851.8
07 00:20 24.1 92 20.13 22.7 7 7 1012.4 0 43.5 42.6 83.6 221.1 245.3 852.0
07 00:10 24.1 92 20.13 22.7 7 9 1012.4 0 43.5 42.6 83.6 221.1 245.3 852.0
07 00:00 24.1 92 20.13 22.7 7 9 1012.1 0 43.5 42.6 83.5 221.1 245.3 851.8
06 23:50 24.1 92 20.13 22.7 7 9 1012.5 0 43.5 42.6 83.6 221.1 245.3 852.1
06 23:40 24.2 92 20.24 22.8 9 9 1012.6 0 43.7 42.8 84.0 222.3 246.8 857.1
06 23:30 24.1 91 19.91 22.5 9 11 1012.3 0 43.0 42.2 82.5 218.2 241.8 839.7
06 23:20 24.1 91 19.91 22.5 7 9 1012.6 0 43.0 42.2 82.5 218.3 241.8 839.8
06 23:10 24.2 91 20.02 22.6 9 11 1012.7 0 43.2 42.4 82.9 219.4 243.3 844.9
06 23:00 24.1 91 19.91 22.5 9 11 1012.4 0 43.0 42.2 82.5 218.2 241.8 839.7
06 22:50 24.2 90 19.8 22.5 9 11 1012.7 0 42.8 42.0 81.8 216.6 239.7 832.7
06 22:40 24.2 90 19.8 22.5 7 9 1012.8 0 42.8 42.0 81.9 216.6 239.8 832.7
06 22:30 24.2 89 19.58 22.3 9 11 1012.4 0 42.3 41.5 80.8 213.7 236.2 820.3
06 22:20 24.4 89 19.81 22.5 7 9 1012.7 0 42.8 41.9 81.7 216.1 239.3 831.0
06 22:10 24.3 89 19.69 22.4 9 11 1012.6 0 42.5 41.7 81.2 214.8 237.7 825.4
06 22:00 24.4 89 19.81 22.5 7 11 1012.2 0 42.8 41.9 81.6 216.0 239.2 830.7
06 21:50 24.3 89 19.69 22.4 7 7 1012.4 0 42.5 41.7 81.2 214.8 237.6 825.3
06 21:40 24.3 89 19.69 22.4 7 7 1012.4 0 42.5 41.7 81.2 214.8 237.6 825.3
06 21:30 24.4 89 19.81 22.5 9 11 1012 0 42.8 41.8 81.6 216.0 239.1 830.6
06 21:20 24.4 88 19.58 22.3 9 11 1012.3 0 42.3 41.4 80.5 213.1 235.5 818.1
06 21:10 24.5 88 19.69 22.4 11 13 1012.2 0 42.5 41.6 81.0 214.2 237.0 823.0
06 21:00 24.5 87 19.47 22.2 11 13 1011.7 0 42.0 41.1 79.9 211.3 233.4 810.7
06 20:50 24.5 87 19.47 22.2 9 11 1011.9 0 42.0 41.1 79.9 211.3 233.4 810.8
06 20:40 24.5 87 19.47 22.2 11 11 1011.9 0 42.0 41.1 79.9 211.3 233.4 810.8
06 20:30 24.5 87 19.47 22.2 11 15 1011.5 0 42.0 41.1 79.8 211.3 233.4 810.5
06 20:20 24.6 87 19.58 22.3 11 13 1011.8 0 42.2 41.3 80.3 212.4 234.8 815.6
06 20:10 24.6 87 19.58 22.3 11 13 1011.7 0 42.2 41.3 80.3 212.4 234.8 815.6
06 20:00 24.7 87 19.69 22.4 11 15 1011.2 0 42.5 41.4 80.7 213.5 236.2 820.3
06 19:50 24.8 86 19.57 22.3 13 15 1011.4 0 42.2 41.1 80.0 211.7 234.0 812.7
06 19:40 24.8 85 19.35 22.1 15 17 1011.2 0 41.7 40.7 78.9 208.8 230.5 800.6
06 19:30 24.9 85 19.46 22.2 13 17 1010.9 0 42.0 40.9 79.3 209.9 231.9 805.4
06 19:20 24.9 85 19.46 22.2 13 13 1011.1 0 42.0 40.9 79.3 210.0 231.9 805.5
06 19:10 25.1 83 19.21 22 13 15 1011.1 0 41.4 40.3 77.9 206.2 227.4 789.8
06 19:00 25.2 83 19.32 22.1 11 15 1010.7 0 41.6 40.4 78.3 207.3 228.7 794.5
06 18:50 25.3 82 19.2 22 11 13 1010.9 0 41.4 40.2 77.7 205.5 226.6 787.1
06 18:40 25.4 80 18.83 21.7 13 13 1010.9 0 40.6 39.4 75.8 200.6 220.6 766.3
06 18:30 25.6 79 18.81 21.7 15 19 1010.5 0 40.5 39.3 75.5 199.8 219.7 763.0
06 18:20 25.9 78 18.88 21.8 17 19 1010.7 0 40.6 39.3 75.6 199.9 219.9 763.8
06 18:10 26.2 74 18.22 21.2 15 17 1010.6 0 39.2 37.9 72.2 191.0 209.1 726.3
06 18:00 26.4 73 18.17 21.2 17 20 1010.2 0 39.1 37.7 71.8 189.9 207.7 721.6
06 17:50 26.7 72 18.23 21.2 15 17 1010.4 0 39.2 37.7 71.8 189.9 207.8 722.0
06 17:40 26.7 71 17.97 21 15 17 1010.2 0 38.6 37.2 70.6 186.7 204.0 708.6
06 17:30 27 70 18.02 21.1 17 24 1009.8 0 38.7 37.2 70.5 186.5 203.8 708.1
06 17:20 27.4 67 17.63 20.7 19 20 1010 0 37.8 36.3 68.4 181.0 197.1 684.9
06 17:10 27.9 65 17.58 20.7 20 20 1009.9 0 37.7 36.0 67.8 179.3 195.1 678.0
06 17:00 28.3 60 16.59 19.8 19 24 1009.5 0 35.6 34.1 63.2 167.0 180.2 626.0
06 16:50 28.4 60 16.68 19.9 20 24 1009.8 0 35.8 34.2 63.5 167.8 181.2 629.7
06 16:40 28.7 55 15.54 18.8 20 24 1009.7 0 33.3 32.2 58.5 154.6 165.1 573.3
06 16:30 28.9 57 16.29 19.5 19 28 1009.3 0 34.9 33.4 61.4 162.4 174.7 606.9
06 16:20 29.3 57 16.64 19.9 20 24 1009.6 0 35.6 33.8 62.6 165.4 178.6 620.4
06 16:10 29.1 54 15.6 19.1 20 24 1009.5 0 33.4 32.2 58.4 154.4 165.0 573.1
06 16:00 28.7 56 15.83 19.3 20 24 1009.2 0 33.9 32.7 59.7 157.7 168.9 586.7
06 15:50 29.1 55 15.89 19.4 19 22 1009.5 0 34.0 32.6 59.6 157.6 168.9 586.6
06 15:40 28.6 59 16.58 19.8 22 26 1009.4 0 35.5 34.0 62.9 166.2 179.3 623.1
06 15:30 28.8 59 16.77 20 20 22 1009.4 0 35.9 34.2 63.5 167.9 181.5 630.6

Last Refresh: 07-Aug-2020 08:24:01

Most of the information presented on this site is sourced from the Bureau of Meteorology.  Copyright in all material sourced from the Bureau of Meteorology resides with the Commonwealth of Australia.